createdAt,value
2023-02-28T00:03:44.417Z,-1.24
2023-02-28T00:08:47.960Z,-1.27
2023-02-28T00:13:50.433Z,-1.34
2023-02-28T00:18:53.737Z,-1.44
2023-02-28T00:23:55.555Z,-1.52
2023-02-28T00:28:57.242Z,-1.57
2023-02-28T00:34:01.482Z,-1.64
2023-02-28T00:39:03.283Z,-1.72
2023-02-28T00:44:05.661Z,-1.88
2023-02-28T00:49:09.325Z,-2.02
2023-02-28T00:54:13.317Z,-2.15
2023-02-28T00:59:16.514Z,-2.26
2023-02-28T01:04:18.331Z,-2.38
2023-02-28T01:09:20.166Z,-2.47
2023-02-28T01:14:21.876Z,-2.48
2023-02-28T01:19:23.801Z,-2.45
2023-02-28T01:24:25.490Z,-2.40
2023-02-28T01:29:27.180Z,-2.27
2023-02-28T01:34:28.968Z,-2.12
2023-02-28T01:39:30.660Z,-2.00
2023-02-28T01:45:07.528Z,-1.92
2023-02-28T01:50:15.961Z,-1.86
2023-02-28T01:55:20.644Z,-1.82
2023-02-28T02:00:27.719Z,-1.80
2023-02-28T02:05:35.557Z,-1.76
2023-02-28T02:10:42.405Z,-1.73
2023-02-28T02:15:55.698Z,-1.74
2023-02-28T02:21:28.069Z,-1.73
2023-02-28T02:27:19.270Z,-1.73
2023-02-28T02:33:07.491Z,-1.74
2023-02-28T02:38:35.431Z,-1.88
2023-02-28T02:43:45.404Z,-2.09
2023-02-28T02:48:48.327Z,-2.28
2023-02-28T02:53:55.836Z,-2.46
2023-02-28T02:59:03.864Z,-2.65
2023-02-28T03:04:17.203Z,-2.87
2023-02-28T03:09:18.904Z,-3.03
2023-02-28T03:14:28.173Z,-3.19
2023-02-28T03:19:51.514Z,-3.33
2023-02-28T03:25:01.006Z,-3.38
2023-02-28T03:30:35.341Z,-3.41
2023-02-28T03:35:42.731Z,-3.44
2023-02-28T03:40:51.192Z,-3.50
2023-02-28T03:45:55.235Z,-3.66
2023-02-28T03:51:00.579Z,-3.86
2023-02-28T03:56:17.262Z,-4.03
2023-02-28T04:01:31.702Z,-4.22
2023-02-28T04:06:35.140Z,-4.32
2023-02-28T04:11:42.926Z,-4.34
2023-02-28T04:16:44.699Z,-4.35
2023-02-28T04:21:49.383Z,-4.38
2023-02-28T04:26:53.512Z,-4.45
2023-02-28T04:31:57.282Z,-4.53
2023-02-28T04:37:12.247Z,-4.64
2023-02-28T04:42:15.033Z,-4.71
2023-02-28T04:47:17.596Z,-4.65
2023-02-28T04:52:19.560Z,-4.58
2023-02-28T04:57:21.235Z,-4.51
2023-02-28T05:02:24.927Z,-4.49
2023-02-28T05:07:26.769Z,-4.53
2023-02-28T05:12:28.642Z,-4.63
2023-02-28T05:17:30.487Z,-4.74
2023-02-28T05:22:33.021Z,-4.81
2023-02-28T05:27:34.999Z,-4.84
2023-02-28T05:32:43.835Z,-4.84
2023-02-28T05:37:45.553Z,-5.05
2023-02-28T05:42:48.018Z,-4.91
2023-02-28T05:47:49.766Z,-4.91
2023-02-28T05:52:52.141Z,-4.99
2023-02-28T05:57:53.960Z,-4.70
2023-02-28T06:02:58.994Z,-4.58
2023-02-28T06:08:00.684Z,-4.51
2023-02-28T06:13:05.732Z,-4.44
2023-02-28T06:18:07.761Z,-4.40
2023-02-28T06:23:09.499Z,-4.27
2023-02-28T06:28:11.170Z,-4.10
2023-02-28T06:33:12.911Z,-3.90
2023-02-28T06:38:14.924Z,-3.71
2023-02-28T06:43:16.875Z,-3.49
2023-02-28T06:48:18.876Z,-3.30
2023-02-28T06:53:21.066Z,-3.09
2023-02-28T06:58:22.884Z,-2.91
2023-02-28T07:03:24.806Z,-2.74
2023-02-28T07:08:27.794Z,-2.61
2023-02-28T07:13:29.848Z,-2.47
2023-02-28T07:18:32.264Z,-2.30
2023-02-28T07:23:36.657Z,-2.14
2023-02-28T07:29:03.647Z,-2.02
2023-02-28T07:34:05.512Z,-1.95
2023-02-28T07:39:07.365Z,-1.92
2023-02-28T07:44:09.669Z,-1.82
2023-02-28T07:49:11.425Z,-1.71
2023-02-28T07:54:13.046Z,-1.58
2023-02-28T07:59:14.696Z,-1.46
2023-02-28T08:04:16.447Z,-1.32
2023-02-28T08:09:18.107Z,-1.14
2023-02-28T08:14:19.842Z,-0.98
2023-02-28T08:19:21.473Z,-0.88
2023-02-28T08:24:23.511Z,-0.78
2023-02-28T08:29:25.201Z,-0.69
2023-02-28T08:34:26.930Z,-0.54
2023-02-28T08:39:28.654Z,-0.34
2023-02-28T08:44:30.364Z,-0.15
2023-02-28T08:49:32.117Z,0.02
2023-02-28T08:54:35.247Z,0.22
2023-02-28T08:59:36.903Z,0.38
2023-02-28T09:04:38.609Z,0.55
2023-02-28T09:09:54.452Z,0.77
2023-02-28T09:14:56.191Z,1.01
2023-02-28T09:19:58.474Z,1.19
2023-02-28T09:25:00.159Z,1.36
2023-02-28T09:30:01.887Z,1.35
2023-02-28T09:35:03.910Z,1.28
2023-02-28T09:40:06.797Z,1.23
2023-02-28T09:45:25.542Z,1.19
2023-02-28T09:50:27.297Z,1.04
2023-02-28T09:55:46.526Z,0.95
2023-02-28T10:00:58.990Z,0.99
2023-02-28T10:06:18.001Z,1.08
2023-02-28T10:11:21.727Z,1.16
2023-02-28T10:16:34.623Z,1.43
2023-02-28T10:21:48.761Z,1.77
2023-02-28T10:26:53.757Z,2.02
2023-02-28T10:31:55.449Z,2.28
2023-02-28T10:36:57.378Z,2.52
2023-02-28T10:41:59.114Z,2.64
2023-02-28T10:47:01.168Z,2.86
2023-02-28T10:52:02.995Z,2.98
2023-02-28T10:57:16.952Z,2.82
2023-02-28T11:02:39.214Z,2.60
2023-02-28T11:07:52.866Z,2.57
2023-02-28T11:12:58.172Z,2.52
2023-02-28T11:18:21.981Z,2.37
2023-02-28T11:23:28.786Z,2.33
2023-02-28T11:28:36.493Z,2.23
2023-02-28T11:33:49.802Z,2.12
2023-02-28T11:38:54.018Z,2.07
2023-02-28T11:44:32.240Z,1.95
2023-02-28T11:50:08.498Z,1.88
2023-02-28T11:55:31.296Z,1.85
2023-02-28T12:01:10.702Z,1.93
2023-02-28T12:06:43.097Z,1.90
2023-02-28T12:11:56.305Z,1.89
2023-02-28T12:17:23.514Z,1.96
2023-02-28T12:22:31.566Z,2.05
2023-02-28T12:27:40.760Z,2.10
2023-02-28T12:32:47.806Z,2.08
2023-02-28T12:37:59.950Z,2.11
2023-02-28T12:43:08.400Z,2.08
2023-02-28T12:48:16.653Z,2.18
2023-02-28T12:53:57.812Z,2.31
2023-02-28T12:59:05.919Z,2.27
2023-02-28T13:04:38.551Z,2.27
2023-02-28T13:09:41.018Z,2.26
2023-02-28T13:14:43.613Z,2.48
2023-02-28T13:19:56.432Z,2.50
2023-02-28T13:24:58.789Z,2.48
2023-02-28T13:30:01.453Z,2.50
2023-02-28T13:35:06.113Z,2.51
2023-02-28T13:40:10.932Z,2.54
2023-02-28T13:45:12.737Z,2.58
2023-02-28T13:50:39.000Z,2.54
2023-02-28T13:56:05.584Z,2.61
2023-02-28T14:01:32.953Z,2.62
2023-02-28T14:06:36.649Z,2.61
2023-02-28T14:11:40.637Z,2.60
2023-02-28T14:16:48.011Z,2.58
2023-02-28T14:22:20.077Z,2.60
2023-02-28T14:27:43.834Z,2.67
2023-02-28T14:32:55.511Z,2.55
2023-02-28T14:37:57.968Z,2.70
2023-02-28T14:43:01.989Z,2.75
2023-02-28T14:48:09.326Z,2.73
2023-02-28T14:53:18.906Z,2.75
2023-02-28T14:58:32.202Z,2.72
2023-02-28T15:03:36.816Z,2.65
2023-02-28T15:08:38.549Z,2.59
2023-02-28T15:13:52.679Z,2.55
2023-02-28T15:18:58.918Z,2.49
2023-02-28T15:24:15.278Z,2.45
2023-02-28T15:29:23.766Z,2.40
2023-02-28T15:34:45.319Z,2.30
2023-02-28T15:39:48.359Z,2.20
2023-02-28T15:44:50.360Z,2.09
2023-02-28T15:49:55.735Z,1.96
2023-02-28T15:54:57.471Z,1.84
2023-02-28T16:00:05.462Z,1.70
2023-02-28T16:05:13.590Z,1.56
2023-02-28T16:10:15.690Z,1.38
2023-02-28T16:15:29.963Z,1.17
2023-02-28T16:20:32.300Z,0.95
2023-02-28T16:25:43.450Z,0.71
2023-02-28T16:30:45.078Z,0.46
2023-02-28T16:35:46.768Z,0.24
2023-02-28T16:40:50.816Z,0.04
2023-02-28T16:46:01.261Z,-0.13
2023-02-28T16:51:05.338Z,-0.28
2023-02-28T16:56:11.975Z,-0.43
2023-02-28T17:01:14.653Z,-0.57
2023-02-28T17:06:31.453Z,-0.70
2023-02-28T17:11:33.769Z,-0.83
2023-02-28T17:16:40.574Z,-0.97
2023-02-28T17:21:43.187Z,-1.10
2023-02-28T17:26:45.091Z,-1.21
2023-02-28T17:31:46.882Z,-1.23
2023-02-28T17:36:51.405Z,-1.38
2023-02-28T17:41:54.418Z,-1.20
2023-02-28T17:46:57.296Z,-1.20
2023-02-28T17:51:58.951Z,-1.27
2023-02-28T17:57:01.025Z,-1.34
2023-02-28T18:02:04.564Z,-1.40
2023-02-28T18:07:13.412Z,-1.44
2023-02-28T18:12:15.069Z,-1.48
2023-02-28T18:17:16.761Z,-1.55
2023-02-28T18:22:18.463Z,-1.66
2023-02-28T18:27:20.188Z,-1.76
2023-02-28T18:32:21.938Z,-1.89
2023-02-28T18:37:53.305Z,-2.01
2023-02-28T18:43:20.052Z,-2.17
2023-02-28T18:48:23.271Z,-2.27
2023-02-28T18:53:24.964Z,-2.36
2023-02-28T18:58:27.506Z,-2.33
2023-02-28T19:03:29.643Z,-2.32
2023-02-28T19:08:31.423Z,-2.28
2023-02-28T19:13:33.089Z,-2.25
2023-02-28T19:18:34.917Z,-2.28
2023-02-28T19:23:37.857Z,-2.36
2023-02-28T19:28:40.445Z,-2.48
2023-02-28T19:33:42.693Z,-2.63
2023-02-28T19:38:45.036Z,-2.80
2023-02-28T19:43:47.465Z,-2.93
2023-02-28T19:48:49.239Z,-3.05
2023-02-28T19:53:52.498Z,-3.17
2023-02-28T19:58:54.143Z,-3.30
2023-02-28T20:03:55.975Z,-3.41
2023-02-28T20:08:57.661Z,-3.48
2023-02-28T20:14:00.555Z,-3.49
2023-02-28T20:19:02.349Z,-3.43
2023-02-28T20:24:04.438Z,-3.37
2023-02-28T20:29:08.551Z,-3.39
2023-02-28T20:34:11.244Z,-3.47
2023-02-28T20:39:13.581Z,-3.56
2023-02-28T20:44:15.297Z,-3.63
2023-02-28T20:49:17.192Z,-3.70
2023-02-28T20:54:19.029Z,-3.73
2023-02-28T20:59:22.254Z,-3.82
2023-02-28T21:04:24.017Z,-3.81
2023-02-28T21:09:25.779Z,-3.71
2023-02-28T21:14:28.600Z,-3.56
2023-02-28T21:19:30.303Z,-3.51
2023-02-28T21:24:32.080Z,-3.52
2023-02-28T21:29:33.799Z,-3.58
2023-02-28T21:34:35.433Z,-3.67
2023-02-28T21:39:37.177Z,-3.80
2023-02-28T21:44:38.876Z,-3.92
2023-02-28T21:49:40.514Z,-4.03
2023-02-28T21:54:42.292Z,-4.14
2023-02-28T21:59:44.051Z,-4.27
2023-02-28T22:04:45.789Z,-4.35
2023-02-28T22:09:48.106Z,-4.33
2023-02-28T22:14:56.627Z,-4.24
2023-02-28T22:19:59.418Z,-4.21
2023-02-28T22:25:01.150Z,-4.27
2023-02-28T22:30:03.274Z,-4.36
2023-02-28T22:35:08.215Z,-4.48
2023-02-28T22:40:10.571Z,-4.55
2023-02-28T22:45:13.541Z,-4.52
2023-02-28T22:50:20.432Z,-4.49
2023-02-28T22:55:25.015Z,-4.49
2023-02-28T23:00:26.691Z,-4.56
2023-02-28T23:05:30.512Z,-4.64
2023-02-28T23:10:32.238Z,-4.74
2023-02-28T23:15:34.223Z,-4.74
2023-02-28T23:20:36.084Z,-4.69
2023-02-28T23:25:41.580Z,-4.57
2023-02-28T23:30:43.310Z,-4.58
2023-02-28T23:35:45.243Z,-4.57
2023-02-28T23:40:47.011Z,-4.54
2023-02-28T23:45:57.735Z,-4.46
2023-02-28T23:51:08.507Z,-4.38
2023-02-28T23:56:15.893Z,-4.33
